Time;durP1;ratioP1;P1;durP2;ratioP2;P2;SDS_P1;SDS_P2;PMS_P1;PMS_P2;Temp;Humidity;BMP_temperature;BMP_pressure;BME280_temperature;BME280_humidity;BME280_pressure;Samples;Min_cycle;Max_cycle;Signal;HPM_P1;HPM_P2
2022/03/04 00:00:09;;;;;;;16.47;13.87;;;;;;;;;;519122;28;1473;-73
2022/03/04 00:00:24;;;;;;;16.60;14.13;;;;;;;;;;519982;28;1472;-73
2022/03/04 00:00:40;;;;;;;16.00;13.67;;;;;;;;;;522234;28;943;-73
2022/03/04 00:00:56;;;;;;;15.70;13.48;;;;;;;;;;521467;28;1336;-73
2022/03/04 00:01:11;;;;;;;15.60;13.60;;;;;;;;;;521735;28;757;-73
2022/03/04 00:01:27;;;;;;;16.10;13.63;;;;;;;;;;520258;28;788;-73
2022/03/04 00:01:44;;;;;;;16.05;13.75;;;;;;;;;;519574;28;1181;-73
2022/03/04 00:02:00;;;;;;;15.60;13.43;;;;;;;;;;519699;28;928;-73
2022/03/04 00:02:15;;;;;;;16.67;13.90;;;;;;;;;;523090;28;840;-75
2022/03/04 00:02:31;;;;;;;16.38;13.65;;;;;;;;;;523402;28;1067;-74
2022/03/04 00:02:46;;;;;;;16.47;13.80;;;;;;;;;;524033;28;1343;-75
2022/03/04 00:03:01;;;;;;;16.83;14.17;;;;;;;;;;523593;28;1204;-74
2022/03/04 00:03:17;;;;;;;16.42;14.15;;;;;;;;;;521602;28;1147;-74
2022/03/04 00:03:32;;;;;;;15.90;13.60;;;;;;;;;;522061;28;788;-74
2022/03/04 00:03:47;;;;;;;16.17;13.30;;;;;;;;;;523582;28;843;-74
2022/03/04 00:04:03;;;;;;;16.73;13.63;;;;;;;;;;523242;28;748;-74
2022/03/04 00:04:18;;;;;;;16.20;13.80;;;;;;;;;;521103;28;1203;-74
2022/03/04 00:04:37;;;;;;;15.68;13.80;;;;;;;;;;519094;28;1203;-75
2022/03/04 00:04:53;;;;;;;16.85;14.18;;;;;;;;;;519246;28;1287;-74
2022/03/04 00:05:08;;;;;;;17.50;14.50;;;;;;;;;;519919;28;1358;-74
2022/03/04 00:05:24;;;;;;;17.58;14.32;;;;;;;;;;519576;28;1569;-74
2022/03/04 00:05:40;;;;;;;17.85;14.45;;;;;;;;;;518115;28;819;-74
2022/03/04 00:05:55;;;;;;;17.15;14.40;;;;;;;;;;517322;28;1157;-74
2022/03/04 00:06:11;;;;;;;16.33;14.00;;;;;;;;;;520707;28;1255;-74
2022/03/04 00:06:26;;;;;;;16.57;14.20;;;;;;;;;;522234;28;927;-74
2022/03/04 00:06:41;;;;;;;17.25;14.75;;;;;;;;;;523281;28;752;-73
2022/03/04 00:06:57;;;;;;;17.17;14.80;;;;;;;;;;519951;28;1405;-73
2022/03/04 00:07:12;;;;;;;16.93;13.90;;;;;;;;;;519559;28;1161;-74
2022/03/04 00:07:28;;;;;;;16.83;13.70;;;;;;;;;;519616;28;840;-74
2022/03/04 00:07:44;;;;;;;17.33;14.15;;;;;;;;;;519925;28;844;-73
2022/03/04 00:07:59;;;;;;;17.42;14.20;;;;;;;;;;519926;28;1188;-73
2022/03/04 00:08:14;;;;;;;17.23;14.37;;;;;;;;;;521544;28;724;-73
2022/03/04 00:08:30;;;;;;;17.03;14.30;;;;;;;;;;521892;28;918;-74
2022/03/04 00:08:45;;;;;;;15.90;13.83;;;;;;;;;;521998;28;1241;-74
2022/03/04 00:09:00;;;;;;;15.85;13.63;;;;;;;;;;524243;28;914;-74
2022/03/04 00:09:15;;;;;;;16.20;13.80;;;;;;;;;;526009;28;786;-74
2022/03/04 00:09:31;;;;;;;16.13;13.70;;;;;;;;;;525820;28;782;-74
2022/03/04 00:09:47;;;;;;;16.23;13.80;;;;;;;;;;525680;28;1327;-73
2022/03/04 00:10:03;;;;;;;16.57;14.10;;;;;;;;;;526001;28;1487;-74
2022/03/04 00:10:18;;;;;;;17.10;14.50;;;;;;;;;;524407;28;1472;-74
2022/03/04 00:10:34;;;;;;;17.00;14.43;;;;;;;;;;525028;28;1487;-74
2022/03/04 00:10:49;;;;;;;17.02;14.27;;;;;;;;;;525080;28;675;-75
2022/03/04 00:11:04;;;;;;;17.23;14.50;;;;;;;;;;526259;28;740;-73
2022/03/04 00:11:20;;;;;;;17.03;14.33;;;;;;;;;;525202;28;776;-74
2022/03/04 00:11:35;;;;;;;16.23;13.77;;;;;;;;;;524371;28;1365;-74
2022/03/04 00:11:50;;;;;;;16.43;13.70;;;;;;;;;;524841;28;1401;-74
2022/03/04 00:12:07;;;;;;;17.38;14.05;;;;;;;;;;524136;28;1405;-74
2022/03/04 00:12:22;;;;;;;16.85;14.07;;;;;;;;;;524947;28;787;-73
2022/03/04 00:12:38;;;;;;;16.40;14.20;;;;;;;;;;521620;28;1274;-74
2022/03/04 00:12:54;;;;;;;17.02;14.40;;;;;;;;;;521708;28;934;-74
2022/03/04 00:13:09;;;;;;;17.80;14.27;;;;;;;;;;521488;28;753;-73
2022/03/04 00:13:24;;;;;;;17.05;14.02;;;;;;;;;;519515;28;1362;-73
2022/03/04 00:13:40;;;;;;;17.53;14.03;;;;;;;;;;520015;28;848;-73
2022/03/04 00:13:56;;;;;;;17.73;14.13;;;;;;;;;;519302;28;1330;-74
2022/03/04 00:14:11;;;;;;;17.33;14.40;;;;;;;;;;519480;28;1176;-74
2022/03/04 00:14:26;;;;;;;17.87;14.33;;;;;;;;;;519091;28;828;-73
2022/03/04 00:14:41;;;;;;;17.50;14.07;;;;;;;;;;519737;28;1150;-73
2022/03/04 00:14:57;;;;;;;15.77;13.60;;;;;;;;;;519623;28;726;-73
2022/03/04 00:15:12;;;;;;;15.50;13.60;;;;;;;;;;519408;28;1605;-73
2022/03/04 00:15:28;;;;;;;16.65;14.20;;;;;;;;;;521775;28;969;-73
2022/03/04 00:15:43;;;;;;;16.17;14.13;;;;;;;;;;521638;28;784;-73
2022/03/04 00:15:58;;;;;;;15.90;13.90;;;;;;;;;;519992;28;623;-73
2022/03/04 00:16:14;;;;;;;16.03;13.60;;;;;;;;;;522150;28;736;-73
2022/03/04 00:16:29;;;;;;;15.82;13.70;;;;;;;;;;523727;28;754;-73
2022/03/04 00:16:45;;;;;;;16.63;14.07;;;;;;;;;;524034;28;720;-73
2022/03/04 00:17:00;;;;;;;17.55;14.15;;;;;;;;;;524590;28;1159;-73
2022/03/04 00:17:15;;;;;;;19.00;14.83;;;;;;;;;;524443;28;925;-74
2022/03/04 00:17:31;;;;;;;19.27;15.13;;;;;;;;;;525399;28;934;-74
2022/03/04 00:17:46;;;;;;;17.92;14.82;;;;;;;;;;526286;28;902;-74
2022/03/04 00:18:01;;;;;;;16.90;14.40;;;;;;;;;;528453;28;851;-75
2022/03/04 00:18:17;;;;;;;17.27;14.30;;;;;;;;;;525967;28;1352;-73
2022/03/04 00:18:32;;;;;;;17.85;14.75;;;;;;;;;;525579;28;819;-74
2022/03/04 00:19:06;;;;;;;17.67;14.83;;;;;;;;;;523435;28;1315;-73
2022/03/04 00:19:21;;;;;;;17.70;14.63;;;;;;;;;;522395;28;1350;-74
2022/03/04 00:19:37;;;;;;;17.03;14.07;;;;;;;;;;523496;28;919;-73
2022/03/04 00:19:52;;;;;;;16.92;13.50;;;;;;;;;;521457;28;1366;-73
2022/03/04 00:20:09;;;;;;;16.57;13.57;;;;;;;;;;522309;28;1390;-74
2022/03/04 00:20:24;;;;;;;16.60;13.93;;;;;;;;;;523191;28;1475;-73
2022/03/04 00:20:40;;;;;;;16.37;13.83;;;;;;;;;;522404;28;828;-72
2022/03/04 00:20:55;;;;;;;16.80;13.90;;;;;;;;;;523620;28;1308;-73
2022/03/04 00:21:10;;;;;;;16.93;14.13;;;;;;;;;;523797;28;701;-73
2022/03/04 00:21:25;;;;;;;17.00;14.00;;;;;;;;;;520057;28;1643;-72
2022/03/04 00:21:43;;;;;;;17.65;14.40;;;;;;;;;;519927;28;801;-73
2022/03/04 00:21:58;;;;;;;17.15;14.52;;;;;;;;;;520612;28;2602;-73
2022/03/04 00:22:14;;;;;;;17.67;14.27;;;;;;;;;;522249;28;1528;-73
2022/03/04 00:22:30;;;;;;;18.73;14.27;;;;;;;;;;521842;28;915;-73
2022/03/04 00:22:45;;;;;;;18.20;14.60;;;;;;;;;;521927;28;791;-74
2022/03/04 00:23:01;;;;;;;17.80;14.77;;;;;;;;;;523063;28;869;-74
2022/03/04 00:23:17;;;;;;;17.17;14.57;;;;;;;;;;521009;28;1197;-74
2022/03/04 00:23:32;;;;;;;17.23;14.57;;;;;;;;;;521613;28;1169;-73
2022/03/04 00:23:48;;;;;;;18.42;14.70;;;;;;;;;;521571;28;1188;-73
2022/03/04 00:24:05;;;;;;;18.67;15.00;;;;;;;;;;522127;28;634;-73
2022/03/04 00:24:22;;;;;;;18.15;14.82;;;;;;;;;;523621;28;749;-74
2022/03/04 00:24:38;;;;;;;17.92;15.25;;;;;;;;;;523793;28;1004;-73
2022/03/04 00:24:54;;;;;;;17.48;15.20;;;;;;;;;;523255;28;919;-73
2022/03/04 00:25:09;;;;;;;17.73;14.80;;;;;;;;;;523626;28;740;-73
2022/03/04 00:25:25;;;;;;;18.27;14.82;;;;;;;;;;525423;28;1503;-73
2022/03/04 00:25:40;;;;;;;17.63;14.53;;;;;;;;;;524815;28;1098;-73
2022/03/04 00:25:55;;;;;;;16.13;14.23;;;;;;;;;;528015;28;914;-73
2022/03/04 00:26:10;;;;;;;16.60;14.20;;;;;;;;;;528140;28;803;-73
2022/03/04 00:26:26;;;;;;;16.87;14.27;;;;;;;;;;526328;28;835;-73
2022/03/04 00:26:42;;;;;;;16.80;14.43;;;;;;;;;;526097;28;807;-73
2022/03/04 00:26:58;;;;;;;17.02;14.38;;;;;;;;;;523517;28;1219;-73
2022/03/04 00:27:13;;;;;;;16.83;14.37;;;;;;;;;;523792;28;823;-72
2022/03/04 00:27:29;;;;;;;18.15;14.75;;;;;;;;;;523163;28;1202;-73
2022/03/04 00:27:44;;;;;;;18.35;14.68;;;;;;;;;;523549;28;1303;-73
2022/03/04 00:28:00;;;;;;;16.77;13.87;;;;;;;;;;523766;28;828;-73
2022/03/04 00:28:15;;;;;;;17.03;14.20;;;;;;;;;;523797;28;721;-74
2022/03/04 00:28:31;;;;;;;18.77;15.50;;;;;;;;;;521805;28;1271;-74
2022/03/04 00:28:46;;;;;;;18.43;15.20;;;;;;;;;;522096;28;768;-74
2022/03/04 00:29:03;;;;;;;16.98;14.55;;;;;;;;;;522987;28;1318;-74
2022/03/04 00:29:18;;;;;;;17.40;15.13;;;;;;;;;;523819;28;1054;-73
2022/03/04 00:29:33;;;;;;;19.60;16.87;;;;;;;;;;524085;28;796;-74
2022/03/04 00:29:49;;;;;;;20.60;18.03;;;;;;;;;;523830;28;1301;-73
2022/03/04 00:30:05;;;;;;;20.02;17.38;;;;;;;;;;521686;28;1347;-75
2022/03/04 00:30:21;;;;;;;19.23;16.25;;;;;;;;;;520701;28;1442;-73
2022/03/04 00:30:36;;;;;;;19.13;15.77;;;;;;;;;;522079;28;1179;-74
2022/03/04 00:30:52;;;;;;;18.27;15.18;;;;;;;;;;523387;28;757;-74
2022/03/04 00:31:07;;;;;;;18.43;14.67;;;;;;;;;;523588;28;725;-74
2022/03/04 00:31:23;;;;;;;19.33;14.67;;;;;;;;;;522588;28;871;-73
2022/03/04 00:31:40;;;;;;;18.75;14.85;;;;;;;;;;522337;28;804;-73
2022/03/04 00:31:55;;;;;;;19.23;16.13;;;;;;;;;;522510;28;1488;-73
2022/03/04 00:32:10;;;;;;;22.20;18.50;;;;;;;;;;524069;28;756;-73
2022/03/04 00:32:26;;;;;;;22.45;19.10;;;;;;;;;;522118;28;1350;-73
2022/03/04 00:32:41;;;;;;;21.27;18.13;;;;;;;;;;523891;28;1359;-73
2022/03/04 00:32:57;;;;;;;22.52;18.08;;;;;;;;;;523809;28;1914;-73
2022/03/04 00:33:12;;;;;;;21.70;17.13;;;;;;;;;;523485;28;748;-73
2022/03/04 00:33:27;;;;;;;20.43;16.43;;;;;;;;;;521733;28;1262;-74
2022/03/04 00:33:42;;;;;;;20.02;15.77;;;;;;;;;;521739;28;1237;-73
2022/03/04 00:33:59;;;;;;;18.70;15.00;;;;;;;;;;523771;28;887;-73
2022/03/04 00:34:14;;;;;;;18.52;14.75;;;;;;;;;;524141;28;815;-73
2022/03/04 00:34:30;;;;;;;17.70;14.55;;;;;;;;;;525415;28;764;-72
2022/03/04 00:34:45;;;;;;;17.20;14.80;;;;;;;;;;525570;28;1271;-73
2022/03/04 00:35:01;;;;;;;17.53;14.90;;;;;;;;;;525548;28;1086;-74
2022/03/04 00:35:16;;;;;;;18.83;15.30;;;;;;;;;;523628;28;1353;-74
2022/03/04 00:35:32;;;;;;;19.53;15.67;;;;;;;;;;525364;28;963;-75
2022/03/04 00:35:47;;;;;;;18.87;15.53;;;;;;;;;;525306;28;1253;-74
2022/03/04 00:36:02;;;;;;;18.52;14.98;;;;;;;;;;525394;28;1142;-73
2022/03/04 00:36:22;;;;;;;18.43;14.37;;;;;;;;;;522391;28;2401;-73
2022/03/04 00:36:38;;;;;;;19.00;14.68;;;;;;;;;;518741;28;1116;-74
2022/03/04 00:36:54;;;;;;;18.45;14.57;;;;;;;;;;519664;28;1191;-74
2022/03/04 00:37:09;;;;;;;17.77;14.50;;;;;;;;;;521089;28;1205;-73
2022/03/04 00:37:24;;;;;;;17.17;14.45;;;;;;;;;;521248;28;1004;-74
2022/03/04 00:37:40;;;;;;;18.03;14.43;;;;;;;;;;521762;28;991;-73
2022/03/04 00:37:56;;;;;;;17.92;14.15;;;;;;;;;;518820;28;1354;-73
2022/03/04 00:38:11;;;;;;;17.13;14.18;;;;;;;;;;520159;28;1126;-73
2022/03/04 00:38:26;;;;;;;17.10;14.27;;;;;;;;;;520070;28;1231;-74
2022/03/04 00:38:42;;;;;;;17.50;14.83;;;;;;;;;;520225;28;1270;-74
2022/03/04 00:38:57;;;;;;;17.55;14.82;;;;;;;;;;519880;28;1321;-73
2022/03/04 00:39:13;;;;;;;16.53;14.13;;;;;;;;;;519681;28;1132;-73
2022/03/04 00:39:28;;;;;;;16.77;14.25;;;;;;;;;;516790;28;1239;-73
2022/03/04 00:39:44;;;;;;;17.73;14.50;;;;;;;;;;517842;28;1152;-72
2022/03/04 00:40:00;;;;;;;17.95;14.90;;;;;;;;;;519601;28;1183;-73
2022/03/04 00:40:15;;;;;;;18.23;15.23;;;;;;;;;;519457;28;1411;-74
2022/03/04 00:40:30;;;;;;;17.30;14.77;;;;;;;;;;521332;28;1043;-74
2022/03/04 00:40:47;;;;;;;17.17;14.35;;;;;;;;;;522466;28;1130;-74
2022/03/04 00:41:03;;;;;;;17.95;14.20;;;;;;;;;;524062;28;1181;-73
2022/03/04 00:41:20;;;;;;;16.20;13.73;;;;;;;;;;525633;28;851;-74
2022/03/04 00:41:35;;;;;;;16.60;14.30;;;;;;;;;;525581;28;923;-74
2022/03/04 00:41:50;;;;;;;17.03;14.30;;;;;;;;;;527548;28;1192;-74
2022/03/04 00:42:06;;;;;;;16.60;13.73;;;;;;;;;;524923;28;1173;-74
2022/03/04 00:42:21;;;;;;;16.83;13.83;;;;;;;;;;523711;28;980;-73
2022/03/04 00:42:37;;;;;;;17.57;14.03;;;;;;;;;;525905;28;922;-74
2022/03/04 00:42:52;;;;;;;17.77;14.45;;;;;;;;;;521839;28;1115;-73
2022/03/04 00:43:07;;;;;;;17.17;14.60;;;;;;;;;;521926;28;938;-73
2022/03/04 00:43:22;;;;;;;16.73;14.20;;;;;;;;;;519682;28;1220;-73
2022/03/04 00:43:38;;;;;;;17.13;13.73;;;;;;;;;;520333;28;1240;-73
2022/03/04 00:43:53;;;;;;;16.53;13.70;;;;;;;;;;521392;28;1068;-73
2022/03/04 00:44:08;;;;;;;17.00;14.17;;;;;;;;;;521949;28;1143;-73
2022/03/04 00:44:24;;;;;;;18.15;14.50;;;;;;;;;;521146;28;1342;-73
2022/03/04 00:44:39;;;;;;;18.70;14.53;;;;;;;;;;518536;28;1176;-73
2022/03/04 00:44:54;;;;;;;19.27;14.43;;;;;;;;;;520354;28;1174;-73
2022/03/04 00:45:10;;;;;;;18.25;14.48;;;;;;;;;;521119;28;1414;-73
2022/03/04 00:45:25;;;;;;;17.58;14.70;;;;;;;;;;520900;28;1763;-73
2022/03/04 00:45:41;;;;;;;18.73;14.80;;;;;;;;;;519889;28;1083;-73
2022/03/04 00:45:56;;;;;;;17.97;14.13;;;;;;;;;;520657;28;1017;-73
2022/03/04 00:46:13;;;;;;;17.08;14.00;;;;;;;;;;521723;28;1347;-73
2022/03/04 00:46:28;;;;;;;17.60;14.05;;;;;;;;;;524317;28;811;-73
2022/03/04 00:46:43;;;;;;;17.33;13.63;;;;;;;;;;526169;28;769;-74
2022/03/04 00:46:59;;;;;;;17.60;13.93;;;;;;;;;;523809;28;1156;-73
2022/03/04 00:47:14;;;;;;;17.20;13.87;;;;;;;;;;524022;28;852;-73
2022/03/04 00:47:30;;;;;;;16.10;13.20;;;;;;;;;;523911;28;803;-72
2022/03/04 00:47:45;;;;;;;16.57;13.53;;;;;;;;;;521347;28;1169;-73
2022/03/04 00:48:00;;;;;;;17.27;14.02;;;;;;;;;;522222;28;802;-74
2022/03/04 00:48:15;;;;;;;16.60;14.03;;;;;;;;;;523982;28;1353;-74
2022/03/04 00:48:31;;;;;;;15.97;13.57;;;;;;;;;;521809;28;1230;-74
2022/03/04 00:48:46;;;;;;;16.38;14.10;;;;;;;;;;521806;28;1054;-74
2022/03/04 00:49:03;;;;;;;17.63;14.90;;;;;;;;;;523782;28;859;-74
2022/03/04 00:49:18;;;;;;;18.63;14.60;;;;;;;;;;521619;28;1486;-74
2022/03/04 00:49:34;;;;;;;18.67;14.50;;;;;;;;;;519041;28;1136;-73
2022/03/04 00:49:49;;;;;;;19.02;14.85;;;;;;;;;;519177;28;840;-74
2022/03/04 00:50:06;;;;;;;19.73;15.57;;;;;;;;;;518122;28;1132;-73
2022/03/04 00:50:21;;;;;;;21.00;17.00;;;;;;;;;;518884;28;1549;-73
2022/03/04 00:50:36;;;;;;;25.43;21.27;;;;;;;;;;521702;28;859;-73
2022/03/04 00:50:51;;;;;;;27.50;22.87;;;;;;;;;;520360;28;847;-75
2022/03/04 00:51:07;;;;;;;24.30;20.33;;;;;;;;;;520062;28;790;-73
2022/03/04 00:51:22;;;;;;;24.43;20.70;;;;;;;;;;523421;28;753;-74
2022/03/04 00:51:38;;;;;;;27.02;22.35;;;;;;;;;;523545;28;1265;-73
2022/03/04 00:51:54;;;;;;;29.40;23.27;;;;;;;;;;521408;28;1384;-73
2022/03/04 00:52:09;;;;;;;35.43;27.40;;;;;;;;;;521254;28;1166;-73
2022/03/04 00:52:24;;;;;;;40.40;30.20;;;;;;;;;;520675;28;760;-73
2022/03/04 00:52:40;;;;;;;36.47;27.48;;;;;;;;;;521626;28;1377;-73
2022/03/04 00:52:57;;;;;;;31.37;24.00;;;;;;;;;;521518;28;1979;-73
2022/03/04 00:53:12;;;;;;;31.80;24.27;;;;;;;;;;521611;28;854;-73
2022/03/04 00:53:27;;;;;;;34.73;26.67;;;;;;;;;;519985;28;1308;-73
2022/03/04 00:53:43;;;;;;;36.00;27.33;;;;;;;;;;522018;28;812;-73
2022/03/04 00:53:59;;;;;;;33.80;26.10;;;;;;;;;;523309;28;944;-72
2022/03/04 00:54:14;;;;;;;31.70;24.42;;;;;;;;;;523447;28;1190;-73
2022/03/04 00:54:29;;;;;;;28.17;21.70;;;;;;;;;;521873;28;1124;-72
2022/03/04 00:54:44;;;;;;;24.35;19.02;;;;;;;;;;523148;28;1298;-73
2022/03/04 00:55:00;;;;;;;22.97;17.83;;;;;;;;;;524252;28;1294;-73
2022/03/04 00:55:15;;;;;;;23.93;18.20;;;;;;;;;;522048;28;1464;-73
2022/03/04 00:55:30;;;;;;;24.30;18.17;;;;;;;;;;524970;28;1309;-74
2022/03/04 00:55:46;;;;;;;22.67;16.60;;;;;;;;;;522182;28;1151;-74
2022/03/04 00:56:02;;;;;;;19.20;15.00;;;;;;;;;;523579;28;918;-74
2022/03/04 00:56:17;;;;;;;16.70;13.82;;;;;;;;;;522233;28;1209;-73
2022/03/04 00:56:32;;;;;;;16.17;13.15;;;;;;;;;;523957;28;910;-73
2022/03/04 00:56:48;;;;;;;15.97;13.20;;;;;;;;;;523817;28;1148;-73
2022/03/04 00:57:04;;;;;;;17.30;13.93;;;;;;;;;;524031;28;951;-74
2022/03/04 00:57:19;;;;;;;16.42;13.80;;;;;;;;;;525582;28;906;-74
2022/03/04 00:57:35;;;;;;;15.93;13.37;;;;;;;;;;523859;28;1152;-74
2022/03/04 00:57:50;;;;;;;16.80;13.70;;;;;;;;;;523432;28;811;-74
2022/03/04 00:58:06;;;;;;;16.77;13.70;;;;;;;;;;521421;28;1510;-73
2022/03/04 00:58:22;;;;;;;16.45;13.65;;;;;;;;;;519238;28;1284;-73
2022/03/04 00:58:38;;;;;;;16.40;13.80;;;;;;;;;;520286;28;872;-73
2022/03/04 00:58:54;;;;;;;17.38;14.30;;;;;;;;;;519687;28;1274;-73
2022/03/04 00:59:09;;;;;;;18.67;15.02;;;;;;;;;;519728;28;903;-73
2022/03/04 00:59:24;;;;;;;19.07;15.20;;;;;;;;;;519133;28;1172;-74
2022/03/04 00:59:40;;;;;;;18.53;14.80;;;;;;;;;;519482;28;1350;-73
2022/03/04 00:59:55;;;;;;;18.85;15.00;;;;;;;;;;520203;28;752;-73
2022/03/04 01:00:11;;;;;;;18.57;14.83;;;;;;;;;;521682;28;1480;-73
2022/03/04 01:00:26;;;;;;;18.63;14.90;;;;;;;;;;523213;28;1326;-73
2022/03/04 01:00:41;;;;;;;19.77;15.67;;;;;;;;;;523775;28;836;-73
2022/03/04 01:00:57;;;;;;;21.17;16.80;;;;;;;;;;521573;28;757;-72
2022/03/04 01:01:12;;;;;;;22.52;19.00;;;;;;;;;;521694;28;886;-73
2022/03/04 01:01:28;;;;;;;22.65;19.83;;;;;;;;;;524165;28;1074;-73
2022/03/04 01:01:43;;;;;;;21.40;18.37;;;;;;;;;;525908;28;1276;-73
2022/03/04 01:01:58;;;;;;;19.30;16.70;;;;;;;;;;525920;28;1336;-73
2022/03/04 01:02:14;;;;;;;21.70;18.90;;;;;;;;;;525638;28;748;-73
2022/03/04 01:02:29;;;;;;;26.00;22.10;;;;;;;;;;523931;28;749;-73
2022/03/04 01:02:44;;;;;;;28.27;24.40;;;;;;;;;;523733;28;1151;-73
2022/03/04 01:03:01;;;;;;;28.48;25.13;;;;;;;;;;524185;28;1409;-73
2022/03/04 01:03:16;;;;;;;26.88;23.98;;;;;;;;;;524779;28;1432;-73
2022/03/04 01:03:33;;;;;;;27.48;24.38;;;;;;;;;;523787;28;1314;-73
2022/03/04 01:03:48;;;;;;;28.55;23.98;;;;;;;;;;523696;28;2119;-73
2022/03/04 01:04:04;;;;;;;27.13;22.73;;;;;;;;;;523868;28;811;-74
2022/03/04 01:04:19;;;;;;;24.57;21.03;;;;;;;;;;523504;28;855;-73
2022/03/04 01:04:34;;;;;;;23.67;20.40;;;;;;;;;;521687;28;1263;-74
2022/03/04 01:04:49;;;;;;;24.73;21.20;;;;;;;;;;521503;28;1132;-73
2022/03/04 01:05:05;;;;;;;25.47;21.20;;;;;;;;;;520692;28;777;-74
2022/03/04 01:05:20;;;;;;;23.95;20.55;;;;;;;;;;519832;28;1493;-73
2022/03/04 01:05:37;;;;;;;23.13;20.63;;;;;;;;;;519936;28;1284;-73
2022/03/04 01:05:52;;;;;;;24.38;21.30;;;;;;;;;;520276;28;788;-73
2022/03/04 01:06:08;;;;;;;25.00;21.17;;;;;;;;;;519699;28;1202;-73
2022/03/04 01:06:23;;;;;;;22.73;19.17;;;;;;;;;;523182;28;720;-73
2022/03/04 01:06:39;;;;;;;19.65;16.77;;;;;;;;;;525798;28;783;-73
2022/03/04 01:06:54;;;;;;;18.17;15.53;;;;;;;;;;526032;28;653;-73
2022/03/04 01:07:09;;;;;;;17.20;14.87;;;;;;;;;;526097;28;922;-73
2022/03/04 01:07:24;;;;;;;16.40;14.27;;;;;;;;;;525448;28;915;-73
2022/03/04 01:07:40;;;;;;;17.57;14.10;;;;;;;;;;523725;28;1176;-73
2022/03/04 01:07:55;;;;;;;18.38;14.45;;;;;;;;;;523943;28;1219;-73
2022/03/04 01:08:11;;;;;;;18.17;14.60;;;;;;;;;;526108;28;933;-73
2022/03/04 01:08:26;;;;;;;17.85;14.23;;;;;;;;;;525862;28;801;-73
2022/03/04 01:08:41;;;;;;;16.30;13.47;;;;;;;;;;523469;28;1234;-73
2022/03/04 01:08:57;;;;;;;15.97;13.40;;;;;;;;;;521824;28;1154;-73
2022/03/04 01:09:12;;;;;;;16.35;13.85;;;;;;;;;;521669;28;1136;-73
2022/03/04 01:09:27;;;;;;;16.97;13.87;;;;;;;;;;519184;28;1274;-73
2022/03/04 01:09:43;;;;;;;16.87;13.60;;;;;;;;;;519996;28;871;-73
2022/03/04 01:09:58;;;;;;;18.67;13.90;;;;;;;;;;520279;28;1004;-73
2022/03/04 01:10:13;;;;;;;18.40;13.63;;;;;;;;;;521323;28;1564;-73
2022/03/04 01:10:29;;;;;;;16.57;13.23;;;;;;;;;;523150;28;912;-73
2022/03/04 01:10:44;;;;;;;16.73;13.20;;;;;;;;;;525231;28;997;-73
2022/03/04 01:11:00;;;;;;;17.05;13.55;;;;;;;;;;523784;28;1147;-73
2022/03/04 01:11:15;;;;;;;17.60;14.10;;;;;;;;;;522249;28;1175;-74
2022/03/04 01:11:31;;;;;;;17.98;14.00;;;;;;;;;;523660;28;1301;-74
2022/03/04 01:11:46;;;;;;;18.03;13.67;;;;;;;;;;521503;28;1389;-73
2022/03/04 01:12:03;;;;;;;17.90;13.60;;;;;;;;;;519753;28;1373;-73
2022/03/04 01:12:18;;;;;;;17.98;14.15;;;;;;;;;;517540;28;1207;-74
2022/03/04 01:12:33;;;;;;;18.30;15.20;;;;;;;;;;517512;28;1457;-73
2022/03/04 01:12:49;;;;;;;18.57;15.47;;;;;;;;;;517195;28;829;-73
2022/03/04 01:13:04;;;;;;;18.30;14.83;;;;;;;;;;517773;28;1906;-73
2022/03/04 01:13:21;;;;;;;16.90;14.52;;;;;;;;;;520011;28;793;-73
2022/03/04 01:13:36;;;;;;;17.38;14.85;;;;;;;;;;522664;28;1432;-74
2022/03/04 01:13:52;;;;;;;17.75;14.93;;;;;;;;;;525525;28;1365;-73
2022/03/04 01:14:08;;;;;;;16.90;14.50;;;;;;;;;;527069;28;1280;-74
2022/03/04 01:14:23;;;;;;;18.00;14.20;;;;;;;;;;527817;28;804;-73
2022/03/04 01:14:39;;;;;;;18.30;14.47;;;;;;;;;;527698;28;1407;-73
2022/03/04 01:14:55;;;;;;;17.03;14.40;;;;;;;;;;527523;28;776;-73
2022/03/04 01:15:10;;;;;;;17.42;14.00;;;;;;;;;;525118;28;1468;-73
2022/03/04 01:15:26;;;;;;;17.80;14.00;;;;;;;;;;525561;28;1877;-73
2022/03/04 01:15:41;;;;;;;16.93;13.93;;;;;;;;;;525546;28;709;-73
2022/03/04 01:15:56;;;;;;;18.25;14.02;;;;;;;;;;521646;28;1156;-73
2022/03/04 01:16:12;;;;;;;17.77;14.20;;;;;;;;;;521941;28;748;-73
2022/03/04 01:16:27;;;;;;;15.90;13.80;;;;;;;;;;523654;28;870;-73
2022/03/04 01:16:42;;;;;;;17.30;14.27;;;;;;;;;;523888;28;935;-73
2022/03/04 01:16:58;;;;;;;16.50;13.97;;;;;;;;;;523471;28;962;-72
2022/03/04 01:17:13;;;;;;;16.70;13.47;;;;;;;;;;525820;28;768;-73
2022/03/04 01:17:28;;;;;;;18.48;14.02;;;;;;;;;;527340;28;1340;-73
2022/03/04 01:17:44;;;;;;;17.90;14.03;;;;;;;;;;528245;28;783;-73
2022/03/04 01:17:59;;;;;;;17.42;14.18;;;;;;;;;;530044;27;843;-73
2022/03/04 01:18:15;;;;;;;17.53;14.37;;;;;;;;;;530086;27;803;-72
2022/03/04 01:18:30;;;;;;;16.80;14.15;;;;;;;;;;530094;27;878;-73
2022/03/04 01:18:45;;;;;;;16.93;14.07;;;;;;;;;;528039;28;1242;-73
2022/03/04 01:19:01;;;;;;;17.03;14.37;;;;;;;;;;525508;28;1321;-74
2022/03/04 01:19:17;;;;;;;16.85;14.32;;;;;;;;;;525872;28;827;-74
2022/03/04 01:19:32;;;;;;;16.80;13.75;;;;;;;;;;525144;28;938;-73
2022/03/04 01:19:47;;;;;;;16.50;13.37;;;;;;;;;;524210;28;1278;-73
2022/03/04 01:20:04;;;;;;;16.13;13.43;;;;;;;;;;521685;28;1187;-73
2022/03/04 01:20:19;;;;;;;15.98;13.98;;;;;;;;;;522434;28;1544;-74
2022/03/04 01:20:35;;;;;;;17.50;14.43;;;;;;;;;;522135;28;1072;-74
2022/03/04 01:20:50;;;;;;;17.80;14.27;;;;;;;;;;523244;28;1016;-73
2022/03/04 01:21:05;;;;;;;16.93;14.03;;;;;;;;;;521080;28;1177;-73
2022/03/04 01:21:21;;;;;;;16.80;14.10;;;;;;;;;;521631;28;1037;-73
2022/03/04 01:21:38;;;;;;;17.10;14.70;;;;;;;;;;522113;28;899;-73
2022/03/04 01:21:53;;;;;;;16.42;14.38;;;;;;;;;;523910;28;2698;-73
2022/03/04 01:22:08;;;;;;;17.07;14.47;;;;;;;;;;526555;28;915;-73
2022/03/04 01:22:24;;;;;;;17.70;14.27;;;;;;;;;;526816;28;1285;-73
2022/03/04 01:22:39;;;;;;;17.27;13.67;;;;;;;;;;525729;28;815;-73
2022/03/04 01:22:54;;;;;;;16.80;13.57;;;;;;;;;;526295;28;1154;-73
2022/03/04 01:23:10;;;;;;;16.45;13.80;;;;;;;;;;527578;28;743;-73
2022/03/04 01:23:25;;;;;;;16.97;14.20;;;;;;;;;;528070;28;774;-73
2022/03/04 01:23:40;;;;;;;17.40;14.23;;;;;;;;;;525801;28;1163;-73
2022/03/04 01:23:55;;;;;;;17.50;14.68;;;;;;;;;;523631;28;1302;-73
2022/03/04 01:24:11;;;;;;;17.90;14.80;;;;;;;;;;523931;28;1259;-73
2022/03/04 01:24:26;;;;;;;17.83;14.50;;;;;;;;;;523352;28;814;-73
2022/03/04 01:24:41;;;;;;;17.98;14.38;;;;;;;;;;524062;28;1261;-72
2022/03/04 01:24:57;;;;;;;17.97;14.37;;;;;;;;;;525751;28;965;-73
2022/03/04 01:25:12;;;;;;;17.70;14.45;;;;;;;;;;522500;28;1559;-72
2022/03/04 01:25:28;;;;;;;17.63;14.43;;;;;;;;;;523871;28;1161;-72
2022/03/04 01:25:43;;;;;;;17.15;14.32;;;;;;;;;;527704;28;807;-72
2022/03/04 01:25:58;;;;;;;16.87;14.17;;;;;;;;;;525759;28;760;-72
2022/03/04 01:26:14;;;;;;;16.50;14.30;;;;;;;;;;525887;28;859;-73
2022/03/04 01:26:29;;;;;;;16.77;14.43;;;;;;;;;;528078;27;957;-73
2022/03/04 01:26:44;;;;;;;17.38;14.48;;;;;;;;;;530178;27;842;-73
2022/03/04 01:26:59;;;;;;;17.23;13.90;;;;;;;;;;528158;28;890;-73
2022/03/04 01:27:15;;;;;;;17.00;13.93;;;;;;;;;;529781;27;842;-73
2022/03/04 01:27:30;;;;;;;16.67;14.25;;;;;;;;;;527836;28;1169;-73
2022/03/04 01:27:45;;;;;;;17.17;14.13;;;;;;;;;;525718;28;1350;-74
2022/03/04 01:28:01;;;;;;;18.57;14.80;;;;;;;;;;525874;28;843;-74
2022/03/04 01:28:17;;;;;;;20.30;17.40;;;;;;;;;;525988;28;931;-74
2022/03/04 01:28:32;;;;;;;22.80;19.10;;;;;;;;;;525691;28;1151;-73
2022/03/04 01:28:47;;;;;;;22.30;18.10;;;;;;;;;;527839;28;1252;-73
2022/03/04 01:29:03;;;;;;;20.47;17.03;;;;;;;;;;525704;28;1243;-73
2022/03/04 01:29:18;;;;;;;19.65;16.08;;;;;;;;;;523689;28;1270;-74
2022/03/04 01:29:33;;;;;;;18.73;15.30;;;;;;;;;;521415;28;975;-74
2022/03/04 01:29:49;;;;;;;17.90;15.10;;;;;;;;;;523797;28;1121;-74
2022/03/04 01:30:07;;;;;;;17.87;14.83;;;;;;;;;;523842;28;926;-74
2022/03/04 01:30:23;;;;;;;19.10;14.73;;;;;;;;;;522786;28;1445;-73
2022/03/04 01:30:38;;;;;;;19.07;14.87;;;;;;;;;;524123;28;802;-73
2022/03/04 01:30:54;;;;;;;18.73;14.70;;;;;;;;;;524674;28;859;-73
2022/03/04 01:31:10;;;;;;;18.80;14.00;;;;;;;;;;526832;28;776;-72
2022/03/04 01:31:25;;;;;;;17.90;13.82;;;;;;;;;;523986;28;1256;-73
2022/03/04 01:31:41;;;;;;;17.20;14.32;;;;;;;;;;523508;28;835;-72
2022/03/04 01:31:56;;;;;;;17.83;14.77;;;;;;;;;;521614;28;1250;-73
2022/03/04 01:32:11;;;;;;;17.73;14.30;;;;;;;;;;521846;28;796;-73
2022/03/04 01:32:26;;;;;;;16.73;14.27;;;;;;;;;;522545;28;1265;-73
2022/03/04 01:32:42;;;;;;;17.10;14.50;;;;;;;;;;523730;28;800;-73
2022/03/04 01:32:57;;;;;;;18.23;14.50;;;;;;;;;;523475;28;1917;-73
2022/03/04 01:33:13;;;;;;;18.37;14.60;;;;;;;;;;523278;28;1425;-73
2022/03/04 01:33:28;;;;;;;17.97;14.77;;;;;;;;;;523597;28;978;-73
2022/03/04 01:33:43;;;;;;;18.58;15.25;;;;;;;;;;523404;28;946;-73
2022/03/04 01:33:59;;;;;;;19.10;15.77;;;;;;;;;;524527;28;779;-73